createdAt,value
2023-02-01T00:01:25.612Z,2.51
2023-02-01T00:03:52.702Z,2.46
2023-02-01T00:06:19.983Z,2.38
2023-02-01T00:08:47.059Z,2.58
2023-02-01T00:11:14.612Z,2.61
2023-02-01T00:13:43.018Z,2.71
2023-02-01T00:16:18.936Z,2.71
2023-02-01T00:18:47.899Z,2.58
2023-02-01T00:21:16.553Z,2.59
2023-02-01T00:23:44.056Z,2.49
2023-02-01T00:26:28.979Z,2.65
2023-02-01T00:28:56.087Z,2.51
2023-02-01T00:31:23.517Z,2.61
2023-02-01T00:33:50.897Z,2.66
2023-02-01T00:36:18.915Z,2.60
2023-02-01T00:38:46.410Z,2.62
2023-02-01T00:41:18.990Z,2.75
2023-02-01T00:43:46.765Z,2.64
2023-02-01T00:46:15.921Z,2.45
2023-02-01T00:48:43.235Z,2.71
2023-02-01T00:51:16.905Z,2.79
2023-02-01T00:53:44.234Z,2.83
2023-02-01T00:56:11.559Z,2.80
2023-02-01T00:58:38.949Z,2.80
2023-02-01T01:01:08.042Z,2.70
2023-02-01T01:03:40.704Z,2.65
2023-02-01T01:06:15.101Z,2.71
2023-02-01T01:08:43.192Z,2.48
2023-02-01T01:11:13.909Z,2.50
2023-02-01T01:13:42.871Z,2.33
2023-02-01T01:16:12.437Z,2.35
2023-02-01T01:18:40.762Z,2.32
2023-02-01T01:21:09.864Z,2.20
2023-02-01T01:23:37.464Z,2.32
2023-02-01T01:26:09.885Z,2.29
2023-02-01T01:28:37.626Z,2.26
2023-02-01T01:31:09.772Z,2.14
2023-02-01T01:33:37.548Z,2.36
2023-02-01T01:36:12.253Z,2.24
2023-02-01T01:38:41.294Z,2.76
2023-02-01T01:41:12.911Z,2.62
2023-02-01T01:43:55.928Z,2.56
2023-02-01T01:46:32.121Z,2.60
2023-02-01T01:49:11.319Z,2.56
2023-02-01T01:51:52.688Z,2.53
2023-02-01T01:54:28.462Z,2.49
2023-02-01T01:56:59.942Z,2.63
2023-02-01T01:59:27.970Z,2.62
2023-02-01T02:01:56.805Z,2.82
2023-02-01T02:04:26.323Z,2.84
2023-02-01T02:07:02.799Z,2.82
2023-02-01T02:09:29.997Z,2.76
2023-02-01T02:11:57.402Z,2.80
2023-02-01T02:14:26.418Z,2.77
2023-02-01T02:17:25.936Z,2.68
2023-02-01T02:20:24.419Z,2.84
2023-02-01T02:23:03.333Z,2.65
2023-02-01T02:25:35.146Z,2.63
2023-02-01T02:28:31.623Z,2.73
2023-02-01T02:31:21.987Z,2.69
2023-02-01T02:34:06.576Z,2.72
2023-02-01T02:37:15.470Z,2.77
2023-02-01T02:39:58.308Z,2.57
2023-02-01T02:42:58.423Z,2.47
2023-02-01T02:46:10.368Z,2.23
2023-02-01T02:48:53.217Z,2.10
2023-02-01T02:51:45.242Z,2.03
2023-02-01T02:54:35.916Z,1.93
2023-02-01T02:57:24.917Z,1.84
2023-02-01T03:00:13.767Z,1.86
2023-02-01T03:02:59.827Z,1.87
2023-02-01T03:05:33.621Z,1.87
2023-02-01T03:08:11.573Z,1.96
2023-02-01T03:11:03.717Z,2.00
2023-02-01T03:13:45.177Z,1.93
2023-02-01T03:16:30.261Z,1.90
2023-02-01T03:19:19.860Z,2.07
2023-02-01T03:22:03.608Z,1.96
2023-02-01T03:24:53.022Z,2.07
2023-02-01T03:27:35.183Z,2.18
2023-02-01T03:30:06.850Z,2.18
2023-02-01T03:32:55.916Z,2.20
2023-02-01T03:35:49.536Z,2.26
2023-02-01T03:38:24.796Z,2.10
2023-02-01T03:41:11.590Z,2.25
2023-02-01T03:44:14.060Z,2.44
2023-02-01T03:46:56.624Z,2.25
2023-02-01T03:49:42.604Z,2.26
2023-02-01T03:52:15.775Z,2.27
2023-02-01T03:54:45.174Z,2.31
2023-02-01T03:57:17.728Z,2.34
2023-02-01T03:59:46.585Z,2.24
2023-02-01T04:02:14.107Z,2.12
2023-02-01T04:04:41.244Z,2.24
2023-02-01T04:07:08.731Z,2.15
2023-02-01T04:09:35.791Z,2.18
2023-02-01T04:12:03.736Z,2.23
2023-02-01T04:14:30.869Z,2.27
2023-02-01T04:16:58.199Z,2.13
2023-02-01T04:19:25.505Z,2.17
2023-02-01T04:21:52.746Z,2.02
2023-02-01T04:24:20.126Z,2.09
2023-02-01T04:26:47.267Z,2.11
2023-02-01T04:29:14.502Z,2.14
2023-02-01T04:31:42.465Z,2.08
2023-02-01T04:34:09.734Z,2.06
2023-02-01T04:36:36.799Z,2.00
2023-02-01T04:39:04.038Z,1.96
2023-02-01T04:41:31.732Z,2.00
2023-02-01T04:43:59.015Z,1.90
2023-02-01T04:46:26.259Z,2.04
2023-02-01T04:48:53.538Z,2.00
2023-02-01T04:51:20.689Z,1.98
2023-02-01T04:53:47.753Z,1.99
2023-02-01T04:56:15.050Z,2.06
2023-02-01T04:58:42.206Z,2.10
2023-02-01T05:01:09.686Z,2.08
2023-02-01T05:03:36.979Z,2.04
2023-02-01T05:06:05.968Z,1.94
2023-02-01T05:08:33.519Z,2.14
2023-02-01T05:11:03.500Z,2.22
2023-02-01T05:13:49.716Z,2.34
2023-02-01T05:16:17.884Z,2.52
2023-02-01T05:18:44.921Z,2.42
2023-02-01T05:21:12.214Z,2.24
2023-02-01T05:23:59.253Z,2.40
2023-02-01T05:26:27.288Z,2.42
2023-02-01T05:28:54.495Z,2.25
2023-02-01T05:31:22.416Z,2.41
2023-02-01T05:33:49.733Z,2.16
2023-02-01T05:36:17.077Z,2.13
2023-02-01T05:38:44.535Z,2.25
2023-02-01T05:41:11.679Z,2.36
2023-02-01T05:43:38.852Z,2.19
2023-02-01T05:46:06.272Z,2.19
2023-02-01T05:48:34.419Z,2.06
2023-02-01T05:51:01.588Z,2.35
2023-02-01T05:53:28.676Z,2.38
2023-02-01T05:55:55.823Z,2.34
2023-02-01T05:58:23.003Z,2.60
2023-02-01T06:00:50.287Z,2.47
2023-02-01T06:03:18.295Z,2.67
2023-02-01T06:05:46.446Z,2.97
2023-02-01T06:08:14.086Z,3.17
2023-02-01T06:10:41.294Z,3.36
2023-02-01T06:13:08.596Z,3.35
2023-02-01T06:15:38.675Z,3.31
2023-02-01T06:18:05.967Z,3.06
2023-02-01T06:20:33.018Z,2.72
2023-02-01T06:23:00.049Z,2.66
2023-02-01T06:25:27.204Z,2.42
2023-02-01T06:27:54.792Z,2.50
2023-02-01T06:30:22.358Z,2.70
2023-02-01T06:32:55.515Z,2.86
2023-02-01T06:35:22.622Z,2.95
2023-02-01T06:37:49.722Z,2.92
2023-02-01T06:40:17.138Z,2.92
2023-02-01T06:42:44.389Z,2.94
2023-02-01T06:45:11.768Z,2.91
2023-02-01T06:47:39.028Z,3.22
2023-02-01T06:50:06.646Z,3.18
2023-02-01T06:52:34.652Z,3.22
2023-02-01T06:55:02.005Z,3.28
2023-02-01T06:57:32.244Z,3.61
2023-02-01T06:59:59.704Z,3.57
2023-02-01T07:02:26.876Z,3.46
2023-02-01T07:04:54.084Z,3.62
2023-02-01T07:07:25.341Z,3.65
2023-02-01T07:09:52.745Z,3.65
2023-02-01T07:12:20.701Z,3.77
2023-02-01T07:14:47.766Z,3.64
2023-02-01T07:17:14.913Z,3.66
2023-02-01T07:19:42.055Z,3.81
2023-02-01T07:22:09.188Z,4.00
2023-02-01T07:24:36.474Z,3.86
2023-02-01T07:27:03.800Z,3.57
2023-02-01T07:29:30.926Z,3.33
2023-02-01T07:31:58.212Z,3.25
2023-02-01T07:34:25.500Z,3.44
2023-02-01T07:36:52.701Z,3.31
2023-02-01T07:39:19.802Z,3.40
2023-02-01T07:41:47.280Z,3.22
2023-02-01T07:44:15.096Z,3.30
2023-02-01T07:46:42.380Z,3.21
2023-02-01T07:49:09.579Z,3.13
2023-02-01T07:51:36.729Z,3.19
2023-02-01T07:54:04.057Z,3.25
2023-02-01T07:56:31.281Z,3.23
2023-02-01T07:59:01.777Z,3.35
2023-02-01T08:01:30.391Z,3.46
2023-02-01T08:04:00.527Z,3.38
2023-02-01T08:06:33.051Z,3.35
2023-02-01T08:09:00.598Z,3.34
2023-02-01T08:11:29.254Z,3.27
2023-02-01T08:13:56.654Z,3.27
2023-02-01T08:16:24.589Z,3.43
2023-02-01T08:18:52.996Z,3.58
2023-02-01T08:21:25.617Z,3.47
2023-02-01T08:23:53.824Z,3.39
2023-02-01T08:26:24.726Z,3.37
2023-02-01T08:28:55.171Z,3.47
2023-02-01T08:31:25.475Z,3.72
2023-02-01T08:34:05.304Z,3.68
2023-02-01T08:36:33.199Z,3.86
2023-02-01T08:39:00.423Z,4.11
2023-02-01T08:41:30.668Z,4.24
2023-02-01T08:44:00.125Z,4.37
2023-02-01T08:46:27.983Z,4.27
2023-02-01T08:48:55.071Z,4.09
2023-02-01T08:51:24.185Z,4.23
2023-02-01T08:53:52.175Z,4.15
2023-02-01T08:56:20.396Z,4.34
2023-02-01T08:58:47.844Z,4.35
2023-02-01T09:01:17.127Z,4.32
2023-02-01T09:03:44.705Z,4.42
2023-02-01T09:06:14.062Z,4.32
2023-02-01T09:08:42.713Z,4.14
2023-02-01T09:11:14.827Z,4.05
2023-02-01T09:13:42.866Z,4.27
2023-02-01T09:16:10.454Z,4.39
2023-02-01T09:18:46.095Z,4.53
2023-02-01T09:21:24.326Z,4.78
2023-02-01T09:23:54.505Z,4.83
2023-02-01T09:26:26.499Z,4.78
2023-02-01T09:28:58.551Z,4.73
2023-02-01T09:31:25.780Z,4.74
2023-02-01T09:33:52.907Z,4.67
2023-02-01T09:36:20.921Z,4.55
2023-02-01T09:38:52.731Z,4.51
2023-02-01T09:41:39.083Z,4.53
2023-02-01T09:44:13.421Z,4.68
2023-02-01T09:46:40.889Z,4.46
2023-02-01T09:49:17.694Z,4.21
2023-02-01T09:51:49.037Z,4.33
2023-02-01T09:54:30.963Z,4.44
2023-02-01T09:57:33.898Z,4.52
2023-02-01T10:00:16.605Z,4.49
2023-02-01T10:02:47.112Z,4.30
2023-02-01T10:05:24.323Z,4.33
2023-02-01T10:08:28.068Z,4.29
2023-02-01T10:11:04.820Z,3.97
2023-02-01T10:13:56.137Z,3.88
2023-02-01T10:16:35.840Z,3.44
2023-02-01T10:19:23.573Z,3.32
2023-02-01T10:22:04.022Z,3.19
2023-02-01T10:24:48.031Z,3.24
2023-02-01T10:27:23.944Z,3.37
2023-02-01T10:30:00.522Z,3.43
2023-02-01T10:32:35.798Z,3.57
2023-02-01T10:35:19.938Z,3.47
2023-02-01T10:37:48.086Z,3.41
2023-02-01T10:40:25.701Z,3.79
2023-02-01T10:42:57.951Z,4.12
2023-02-01T10:45:29.046Z,4.40
2023-02-01T10:47:59.114Z,4.35
2023-02-01T10:50:54.952Z,4.64
2023-02-01T10:53:53.217Z,4.64
2023-02-01T10:56:28.534Z,4.35
2023-02-01T10:59:04.463Z,4.25
2023-02-01T11:01:43.016Z,4.23
2023-02-01T11:04:24.425Z,4.16
2023-02-01T11:07:06.510Z,4.13
2023-02-01T11:09:36.503Z,4.19
2023-02-01T11:12:04.037Z,4.17
2023-02-01T11:14:40.504Z,4.47
2023-02-01T11:17:18.792Z,4.65
2023-02-01T11:20:07.271Z,4.39
2023-02-01T11:22:34.408Z,4.47
2023-02-01T11:25:10.736Z,4.45
2023-02-01T11:27:49.414Z,4.38
2023-02-01T11:30:37.978Z,4.51
2023-02-01T11:33:07.091Z,4.64
2023-02-01T11:35:39.264Z,4.72
2023-02-01T11:38:18.898Z,4.69
2023-02-01T11:40:46.748Z,5.03
2023-02-01T11:43:26.497Z,5.04
2023-02-01T11:46:02.021Z,5.37
2023-02-01T11:48:32.064Z,5.44
2023-02-01T11:51:30.286Z,5.82
2023-02-01T11:54:22.938Z,5.80
2023-02-01T11:57:00.554Z,5.91
2023-02-01T11:59:56.372Z,5.73
2023-02-01T12:02:36.801Z,5.62
2023-02-01T12:05:28.800Z,5.60
2023-02-01T12:08:26.468Z,5.55
2023-02-01T12:11:16.294Z,5.27
2023-02-01T12:13:46.253Z,5.10
2023-02-01T12:16:21.895Z,5.13
2023-02-01T12:18:58.304Z,5.19
2023-02-01T12:21:26.278Z,5.11
2023-02-01T12:24:03.913Z,5.03
2023-02-01T12:26:34.341Z,5.03
2023-02-01T12:29:13.511Z,4.98
2023-02-01T12:31:58.991Z,4.95
2023-02-01T12:34:52.628Z,4.89
2023-02-01T12:37:45.549Z,5.14
2023-02-01T12:40:32.276Z,5.59
2023-02-01T12:43:37.757Z,5.73
2023-02-01T12:46:15.884Z,5.83
2023-02-01T12:49:13.118Z,5.95
2023-02-01T12:51:43.935Z,5.72
2023-02-01T12:54:35.863Z,5.59
2023-02-01T12:57:09.118Z,5.24
2023-02-01T12:59:41.663Z,5.40
2023-02-01T13:02:27.258Z,5.35
2023-02-01T13:05:05.478Z,5.21
2023-02-01T13:08:01.810Z,5.04
2023-02-01T13:10:31.887Z,4.94
2023-02-01T13:13:23.496Z,4.98
2023-02-01T13:16:28.281Z,4.93
2023-02-01T13:19:04.914Z,4.88
2023-02-01T13:21:37.911Z,4.81
2023-02-01T13:24:05.802Z,4.78
2023-02-01T13:26:33.357Z,4.56
2023-02-01T13:29:04.411Z,4.65
2023-02-01T13:31:58.684Z,4.72
2023-02-01T13:34:57.553Z,4.58
2023-02-01T13:37:53.778Z,4.58
2023-02-01T13:40:42.201Z,4.40
2023-02-01T13:43:14.189Z,4.50
2023-02-01T13:46:07.621Z,4.54
2023-02-01T13:48:42.991Z,4.41
2023-02-01T13:51:10.321Z,4.26
2023-02-01T13:53:44.992Z,4.32
2023-02-01T13:56:19.212Z,4.13
2023-02-01T13:58:48.613Z,4.13
2023-02-01T14:01:27.553Z,4.20
2023-02-01T14:03:59.142Z,3.77
2023-02-01T14:06:30.041Z,3.85
2023-02-01T14:09:10.928Z,3.90
2023-02-01T14:11:43.639Z,3.77
2023-02-01T14:14:17.201Z,3.85
2023-02-01T14:16:53.636Z,3.88
2023-02-01T14:19:25.470Z,3.80
2023-02-01T14:22:02.521Z,3.66
2023-02-01T14:24:37.600Z,3.85
2023-02-01T14:27:14.465Z,4.02
2023-02-01T14:29:44.889Z,3.99
2023-02-01T14:32:23.881Z,4.15
2023-02-01T14:34:56.466Z,4.12
2023-02-01T14:37:29.185Z,4.17
2023-02-01T14:40:03.345Z,4.07
2023-02-01T14:42:35.178Z,4.16
2023-02-01T14:45:23.414Z,4.23
2023-02-01T14:48:08.054Z,4.13
2023-02-01T14:50:46.018Z,4.20
2023-02-01T14:53:13.172Z,4.17
2023-02-01T14:55:46.670Z,4.12
2023-02-01T14:58:22.070Z,4.00
2023-02-01T15:00:56.082Z,4.18
2023-02-01T15:04:02.250Z,4.37
2023-02-01T15:06:47.741Z,4.44
2023-02-01T15:09:40.058Z,4.37
2023-02-01T15:12:13.634Z,4.50
2023-02-01T15:14:50.283Z,4.27
2023-02-01T15:17:25.147Z,4.38
2023-02-01T15:20:00.909Z,4.36
2023-02-01T15:22:30.954Z,4.30
2023-02-01T15:25:00.331Z,4.49
2023-02-01T15:27:29.867Z,4.53
2023-02-01T15:30:07.965Z,4.71
2023-02-01T15:32:39.848Z,4.58
2023-02-01T15:35:28.488Z,4.55
2023-02-01T15:38:24.572Z,4.66
2023-02-01T15:41:07.196Z,4.50
2023-02-01T15:43:40.180Z,4.53
2023-02-01T15:46:22.609Z,4.45
2023-02-01T15:48:53.462Z,4.52
2023-02-01T15:51:29.699Z,4.48
2023-02-01T15:54:03.782Z,4.29
2023-02-01T15:56:40.122Z,4.44
2023-02-01T15:59:23.966Z,4.32
2023-02-01T16:01:53.026Z,4.39
2023-02-01T16:04:23.418Z,4.39
2023-02-01T16:06:56.512Z,4.26
2023-02-01T16:09:28.328Z,4.21
2023-02-01T16:12:01.515Z,4.23
2023-02-01T16:14:29.601Z,4.00
2023-02-01T16:16:59.784Z,4.08
2023-02-01T16:19:29.392Z,4.15
2023-02-01T16:22:00.086Z,3.97
2023-02-01T16:24:27.393Z,4.02
2023-02-01T16:26:55.091Z,4.13
2023-02-01T16:29:22.992Z,4.10
2023-02-01T16:31:51.389Z,4.06
2023-02-01T16:34:19.044Z,4.00
2023-02-01T16:36:53.584Z,4.13
2023-02-01T16:39:21.672Z,4.05
2023-02-01T16:41:49.019Z,4.21
2023-02-01T16:44:16.413Z,4.19
2023-02-01T16:46:50.224Z,4.09
2023-02-01T16:49:27.101Z,4.21
2023-02-01T16:51:59.785Z,4.13
2023-02-01T16:54:27.878Z,3.95
2023-02-01T16:56:55.471Z,3.98
2023-02-01T16:59:26.888Z,3.90
2023-02-01T17:01:57.482Z,3.73
2023-02-01T17:04:28.032Z,3.86
2023-02-01T17:06:55.526Z,3.90
2023-02-01T17:09:23.425Z,3.75
2023-02-01T17:11:50.478Z,3.72
2023-02-01T17:14:23.086Z,3.62
2023-02-01T17:16:52.991Z,3.75
2023-02-01T17:19:25.907Z,3.76
2023-02-01T17:21:59.125Z,3.79
2023-02-01T17:24:47.577Z,3.81
2023-02-01T17:27:16.701Z,3.77
2023-02-01T17:29:45.590Z,3.82
2023-02-01T17:32:21.714Z,3.96
2023-02-01T17:34:49.430Z,3.85
2023-02-01T17:37:32.649Z,3.71
2023-02-01T17:40:02.677Z,3.77
2023-02-01T17:42:31.493Z,3.70
2023-02-01T17:45:04.641Z,3.61
2023-02-01T17:47:33.553Z,3.68
2023-02-01T17:50:00.821Z,3.83
2023-02-01T17:52:29.487Z,3.82
2023-02-01T17:54:56.575Z,3.85
2023-02-01T17:57:23.978Z,3.97
2023-02-01T17:59:51.181Z,4.07
2023-02-01T18:02:25.808Z,4.16
2023-02-01T18:04:53.228Z,4.01
2023-02-01T18:07:20.445Z,4.02
2023-02-01T18:09:49.635Z,3.99
2023-02-01T18:12:25.568Z,4.15
2023-02-01T18:14:52.678Z,4.47
2023-02-01T18:17:26.604Z,4.65
2023-02-01T18:19:54.976Z,4.42
2023-02-01T18:22:24.668Z,4.98
2023-02-01T18:24:52.064Z,4.77
2023-02-01T18:27:23.065Z,4.95
2023-02-01T18:29:50.491Z,4.55
2023-02-01T18:32:17.825Z,4.82
2023-02-01T18:34:45.263Z,5.09
2023-02-01T18:37:12.583Z,4.88
2023-02-01T18:39:40.025Z,5.13
2023-02-01T18:42:13.914Z,5.14
2023-02-01T18:44:41.271Z,4.81
2023-02-01T18:47:11.458Z,4.68
2023-02-01T18:49:43.216Z,4.80
2023-02-01T18:52:13.550Z,4.70
2023-02-01T18:54:57.648Z,4.52
2023-02-01T18:57:31.623Z,4.37
2023-02-01T18:59:58.831Z,4.33
2023-02-01T19:02:26.137Z,4.47
2023-02-01T19:04:54.976Z,4.23
2023-02-01T19:07:22.167Z,4.20
2023-02-01T19:09:49.302Z,4.14
2023-02-01T19:12:16.447Z,4.11
2023-02-01T19:14:44.518Z,4.30
2023-02-01T19:17:11.782Z,4.32
2023-02-01T19:19:42.121Z,4.16
2023-02-01T19:22:09.789Z,4.30
2023-02-01T19:24:39.424Z,4.31
2023-02-01T19:27:12.153Z,4.35
2023-02-01T19:29:40.907Z,4.33
2023-02-01T19:32:08.228Z,4.34
2023-02-01T19:34:35.539Z,4.50
2023-02-01T19:37:02.667Z,4.30
2023-02-01T19:39:29.808Z,4.31
2023-02-01T19:41:58.210Z,4.44
2023-02-01T19:44:26.311Z,4.59
2023-02-01T19:46:53.349Z,4.73
2023-02-01T19:49:21.042Z,4.82
2023-02-01T19:51:49.056Z,4.79
2023-02-01T19:54:16.943Z,4.77
2023-02-01T19:56:51.045Z,4.91
2023-02-01T19:59:19.280Z,4.66
2023-02-01T20:01:46.756Z,4.82
2023-02-01T20:04:15.912Z,4.79
2023-02-01T20:06:49.075Z,4.85
2023-02-01T20:09:21.461Z,4.77
2023-02-01T20:11:49.759Z,4.67
2023-02-01T20:14:17.217Z,4.73
2023-02-01T20:16:44.487Z,4.82
2023-02-01T20:19:11.830Z,4.66
2023-02-01T20:21:42.097Z,4.91
2023-02-01T20:24:13.155Z,5.08
2023-02-01T20:26:41.336Z,5.04
2023-02-01T20:29:09.156Z,4.88
2023-02-01T20:31:37.862Z,4.91
2023-02-01T20:34:06.648Z,4.95
2023-02-01T20:36:34.066Z,5.06
2023-02-01T20:39:01.200Z,4.99
2023-02-01T20:41:28.988Z,5.11
2023-02-01T20:43:57.174Z,5.05
2023-02-01T20:46:24.662Z,5.07
2023-02-01T20:48:52.163Z,4.88
2023-02-01T20:51:21.240Z,5.04
2023-02-01T20:53:54.857Z,5.03
2023-02-01T20:56:22.336Z,5.06
2023-02-01T20:58:49.632Z,5.06
2023-02-01T21:01:17.326Z,5.23
2023-02-01T21:03:49.162Z,5.04
2023-02-01T21:06:16.716Z,4.95
2023-02-01T21:08:44.098Z,5.04
2023-02-01T21:11:14.194Z,5.36
2023-02-01T21:13:50.803Z,5.37
2023-02-01T21:16:22.282Z,5.43
2023-02-01T21:18:51.415Z,5.60
2023-02-01T21:21:18.976Z,5.37
2023-02-01T21:23:46.229Z,5.50
2023-02-01T21:26:24.302Z,6.02
2023-02-01T21:28:53.160Z,5.89
2023-02-01T21:31:22.670Z,5.73
2023-02-01T21:33:50.134Z,5.61
2023-02-01T21:36:21.105Z,5.41
2023-02-01T21:38:52.636Z,5.27
2023-02-01T21:41:42.917Z,5.21
2023-02-01T21:44:11.415Z,5.30
2023-02-01T21:46:38.541Z,5.51
2023-02-01T21:49:07.458Z,5.45
2023-02-01T21:51:39.510Z,5.60
2023-02-01T21:54:09.103Z,5.78
2023-02-01T21:56:38.121Z,5.88
2023-02-01T21:59:10.406Z,6.30
2023-02-01T22:01:38.941Z,6.27
2023-02-01T22:04:06.943Z,6.57
2023-02-01T22:06:41.590Z,6.28
2023-02-01T22:09:16.873Z,6.08
2023-02-01T22:11:44.573Z,6.23
2023-02-01T22:14:12.461Z,6.42
2023-02-01T22:16:40.283Z,6.46
2023-02-01T22:19:10.193Z,6.22
2023-02-01T22:21:39.020Z,6.44
2023-02-01T22:24:06.457Z,6.32
2023-02-01T22:26:33.637Z,6.16
2023-02-01T22:29:00.811Z,5.78
2023-02-01T22:31:28.318Z,5.69
2023-02-01T22:33:57.597Z,6.01
2023-02-01T22:36:25.438Z,6.04
2023-02-01T22:38:53.469Z,6.04
2023-02-01T22:41:20.922Z,6.04
2023-02-01T22:43:48.185Z,5.85
2023-02-01T22:46:18.896Z,5.72
2023-02-01T22:48:47.709Z,5.48
2023-02-01T22:51:23.379Z,5.19
2023-02-01T22:53:57.315Z,5.13
2023-02-01T22:56:26.876Z,5.05
2023-02-01T22:58:56.456Z,4.89
2023-02-01T23:01:24.156Z,4.86
2023-02-01T23:03:51.474Z,4.83
2023-02-01T23:06:18.971Z,5.12
2023-02-01T23:08:46.905Z,5.29
2023-02-01T23:11:14.149Z,5.24
2023-02-01T23:13:41.432Z,5.20
2023-02-01T23:16:11.964Z,5.35
2023-02-01T23:18:40.143Z,5.29
2023-02-01T23:21:10.320Z,5.51
2023-02-01T23:23:37.879Z,5.49
2023-02-01T23:26:06.579Z,5.50
2023-02-01T23:28:33.850Z,5.52
2023-02-01T23:31:07.941Z,5.45
2023-02-01T23:33:36.130Z,5.30
2023-02-01T23:36:06.048Z,5.20
2023-02-01T23:38:34.109Z,5.03
2023-02-01T23:41:06.269Z,5.10
2023-02-01T23:43:52.464Z,4.83
2023-02-01T23:46:20.289Z,5.11
2023-02-01T23:48:51.212Z,5.06
2023-02-01T23:51:21.019Z,5.22
2023-02-01T23:53:48.565Z,5.47
2023-02-01T23:56:33.490Z,5.52
2023-02-01T23:59:02.605Z,5.71
